Погода Парамиринна неделю

Баия, Бразилия

15 - 21 июня
  • 15июня
    Сегодня
    +16°
    +28°
    Небольшая облачность
    ВремяПогодаТемператураВлажностьДавлениеВетер, м/сВероятность осадков
    00:00Ясно и безоблачно+18°C83 %712 мм2.5 м/с5 %
    03:00Ясно и безоблачно+17°C89 %711 мм3.1 м/с3 %
    06:00Облачно с прояснениями+18°C92 %712 мм3.4 м/с7 %
    09:00Облачно с прояснениями+21°C78 %714 мм4.8 м/с30 %
    12:00Небольшая облачность+25°C55 %713 мм5.7 м/с33 %
    15:00Небольшая облачность+27°C45 %712 мм4.8 м/с7 %
    18:00Ясно и безоблачно+23°C54 %712 мм2.8 м/с5 %
    21:00Ясно и безоблачно+20°C66 %712 мм2.2 м/с5 %
  • 16июня
    Воскресенье
    +15°
    +30°
    Облачно с прояснениями
    ВремяПогодаТемператураВлажностьДавлениеВетер, м/сВероятность осадков
    00:00Ясно и безоблачно+18°C79 %712 мм2.2 м/с5 %
    03:00Ясно и безоблачно+17°C88 %711 мм2.3 м/с2 %
    06:00Практически безоблачно+16°C92 %711 мм2.9 м/с6 %
    09:00Практически безоблачно+22°C60 %713 мм4.8 м/с16 %
    12:00Небольшая облачность+27°C39 %712 мм3.8 м/с7 %
    15:00Облачно с прояснениями+29°C36 %710 мм4.4 м/с4 %
    18:00Практически безоблачно+24°C53 %710 мм3.8 м/с2 %
    21:00Ясно и безоблачно+21°C66 %711 мм2.1 м/с5 %
  • 17июня
    Понедельник
    +16°
    +29°
    Практически безоблачно
    ВремяПогодаТемператураВлажностьДавлениеВетер, м/сВероятность осадков
    00:00Ясно и безоблачно+18°C75 %710 мм2.5 м/с5 %
    03:00Ясно и безоблачно+17°C88 %710 мм2.3 м/с5 %
    06:00Практически безоблачно+16°C94 %710 мм2.7 м/с5 %
    09:00Ясно и безоблачно+21°C68 %712 мм3.1 м/с3 %
    12:00Небольшая облачность+28°C38 %711 мм1.9 м/с2 %
    15:00Практически безоблачно+29°C34 %709 мм2.5 м/с4 %
    18:00Ясно и безоблачно+24°C52 %709 мм2.9 м/с3 %
    21:00Ясно и безоблачно+21°C71 %710 мм2.3 м/с5 %
  • 18июня
    Вторник
    +17°
    +30°
    Облачно с прояснениями
    ВремяПогодаТемператураВлажностьДавлениеВетер, м/сВероятность осадков
    00:00Ясно и безоблачно+18°C82 %710 мм2.0 м/с5 %
    03:00Ясно и безоблачно+18°C90 %709 мм2.3 м/с5 %
    06:00Ясно и безоблачно+17°C95 %710 мм2.2 м/с5 %
    09:00Практически безоблачно+22°C70 %712 мм3.2 м/с5 %
    12:00Облачно с прояснениями+27°C42 %711 мм2.8 м/с7 %
    15:00Облачно с прояснениями+30°C32 %709 мм2.6 м/с13 %
    18:00Практически безоблачно+24°C47 %709 мм2.0 м/с5 %
    21:00Ясно и безоблачно+21°C70 %710 мм2.0 м/с6 %
Мы используем cookies
Соглашаюсь